createdAt,value
2022-12-29T00:02:02.481Z,7.40
2022-12-29T00:04:29.430Z,7.40
2022-12-29T00:06:56.321Z,7.40
2022-12-29T00:09:23.389Z,7.40
2022-12-29T00:11:51.145Z,7.30
2022-12-29T00:14:36.587Z,7.30
2022-12-29T00:17:03.986Z,7.30
2022-12-29T00:19:49.333Z,7.20
2022-12-29T00:22:48.934Z,7.20
2022-12-29T00:25:34.633Z,7.20
2022-12-29T00:28:20.227Z,7.20
2022-12-29T00:31:05.861Z,7.30
2022-12-29T00:33:52.500Z,7.30
2022-12-29T00:36:40.082Z,7.30
2022-12-29T00:39:38.057Z,7.30
2022-12-29T00:42:39.353Z,7.30
2022-12-29T00:45:08.943Z,7.40
2022-12-29T00:47:35.681Z,7.40
2022-12-29T00:50:02.439Z,7.50
2022-12-29T00:52:29.161Z,7.50
2022-12-29T00:54:56.023Z,7.60
2022-12-29T00:57:22.749Z,7.60
2022-12-29T00:59:49.480Z,7.70
2022-12-29T01:02:16.398Z,7.70
2022-12-29T01:04:43.671Z,7.70
2022-12-29T01:07:10.479Z,7.80
2022-12-29T01:09:56.387Z,7.80
2022-12-29T01:12:41.119Z,7.80
2022-12-29T01:15:11.929Z,7.90
2022-12-29T01:17:38.840Z,7.90
2022-12-29T01:20:06.068Z,7.90
2022-12-29T01:22:32.919Z,8.00
2022-12-29T01:25:00.662Z,8.00
2022-12-29T01:27:27.482Z,8.00
2022-12-29T01:29:54.311Z,8.00
2022-12-29T01:32:21.580Z,8.10
2022-12-29T01:34:48.460Z,8.20
2022-12-29T01:37:15.245Z,8.20
2022-12-29T01:39:42.009Z,8.20
2022-12-29T01:42:18.191Z,8.30
2022-12-29T01:44:57.978Z,8.30
2022-12-29T01:47:31.049Z,8.30
2022-12-29T01:50:02.400Z,8.30
2022-12-29T01:52:33.609Z,8.40
2022-12-29T01:55:04.340Z,8.40
2022-12-29T01:57:35.568Z,8.40
2022-12-29T02:00:11.740Z,8.40
2022-12-29T02:02:45.743Z,8.50
2022-12-29T02:05:33.033Z,8.50
2022-12-29T02:08:01.188Z,8.50
2022-12-29T02:10:31.631Z,8.60
2022-12-29T02:12:58.443Z,8.60
2022-12-29T02:15:38.114Z,8.60
2022-12-29T02:18:31.067Z,8.60
2022-12-29T02:21:20.398Z,8.70
2022-12-29T02:24:08.657Z,8.70
2022-12-29T02:26:58.611Z,8.70
2022-12-29T02:29:59.976Z,8.70
2022-12-29T02:32:49.680Z,8.70
2022-12-29T02:35:41.342Z,8.80
2022-12-29T02:38:34.242Z,8.80
2022-12-29T02:41:23.652Z,8.80
2022-12-29T02:43:50.388Z,8.80
2022-12-29T02:46:30.086Z,8.80
2022-12-29T02:49:20.630Z,8.90
2022-12-29T02:51:54.097Z,8.90
2022-12-29T02:54:40.044Z,8.90
2022-12-29T02:57:16.214Z,8.90
2022-12-29T02:59:47.670Z,8.90
2022-12-29T03:02:40.738Z,8.90
2022-12-29T03:05:27.853Z,8.90
2022-12-29T03:08:30.672Z,8.90
2022-12-29T03:11:30.887Z,8.90
2022-12-29T03:14:37.211Z,9.00
2022-12-29T03:17:11.269Z,9.00
2022-12-29T03:19:49.122Z,9.10
2022-12-29T03:22:28.092Z,9.10
2022-12-29T03:25:30.725Z,9.10
2022-12-29T03:28:03.984Z,9.10
2022-12-29T03:30:36.549Z,9.10
2022-12-29T03:33:10.633Z,9.00
2022-12-29T03:35:41.478Z,9.00
2022-12-29T03:38:23.580Z,9.00
2022-12-29T03:40:57.521Z,9.10
2022-12-29T03:43:27.635Z,9.10
2022-12-29T03:45:55.421Z,9.20
2022-12-29T03:48:22.827Z,9.20
2022-12-29T03:50:50.971Z,9.20
2022-12-29T03:53:18.510Z,9.10
2022-12-29T03:55:45.585Z,9.10
2022-12-29T03:58:12.587Z,9.00
2022-12-29T04:00:56.306Z,9.00
2022-12-29T04:03:23.472Z,9.10
2022-12-29T04:05:51.084Z,9.10
2022-12-29T04:08:18.231Z,9.10
2022-12-29T04:10:45.132Z,9.10
2022-12-29T04:13:13.730Z,9.00
2022-12-29T04:15:42.525Z,9.00
2022-12-29T04:18:09.690Z,9.10
2022-12-29T04:20:55.135Z,9.10
2022-12-29T04:23:22.581Z,9.10
2022-12-29T04:25:49.721Z,9.10
2022-12-29T04:28:17.422Z,9.20
2022-12-29T04:30:54.452Z,9.30
2022-12-29T04:33:25.132Z,9.30
2022-12-29T04:35:54.863Z,9.30
2022-12-29T04:38:24.528Z,9.40
2022-12-29T04:40:52.320Z,9.50
2022-12-29T04:43:22.660Z,9.70
2022-12-29T04:46:04.984Z,9.90
2022-12-29T04:48:40.492Z,10.00
2022-12-29T04:51:24.259Z,10.10
2022-12-29T04:53:51.323Z,10.20
2022-12-29T04:56:18.094Z,10.30
2022-12-29T04:58:45.217Z,10.40
2022-12-29T05:01:13.315Z,10.50
2022-12-29T05:03:41.004Z,10.50
2022-12-29T05:06:08.156Z,10.60
2022-12-29T05:08:35.151Z,10.70
2022-12-29T05:11:03.072Z,10.70
2022-12-29T05:13:29.990Z,10.70
2022-12-29T05:15:57.807Z,10.80
2022-12-29T05:18:25.161Z,10.80
2022-12-29T05:20:52.005Z,10.80
2022-12-29T05:23:20.676Z,10.80
2022-12-29T05:25:53.661Z,10.80
2022-12-29T05:28:34.455Z,10.90
2022-12-29T05:31:11.135Z,10.90
2022-12-29T05:33:38.205Z,10.90
2022-12-29T05:36:06.959Z,10.90
2022-12-29T05:38:35.536Z,10.90
2022-12-29T05:41:02.344Z,10.90
2022-12-29T05:43:57.676Z,10.90
2022-12-29T05:46:35.415Z,10.80
2022-12-29T05:49:25.230Z,10.80
2022-12-29T05:52:24.526Z,10.80
2022-12-29T05:54:51.447Z,10.80
2022-12-29T05:57:21.613Z,10.90
2022-12-29T05:59:57.787Z,11.00
2022-12-29T06:02:24.750Z,11.10
2022-12-29T06:04:51.821Z,11.10
2022-12-29T06:07:19.000Z,11.10
2022-12-29T06:09:48.156Z,11.00
2022-12-29T06:12:15.044Z,11.00
2022-12-29T06:14:44.745Z,10.90
2022-12-29T06:17:11.625Z,10.80
2022-12-29T06:19:38.753Z,10.80
2022-12-29T06:22:05.895Z,10.70
2022-12-29T06:24:34.985Z,10.60
2022-12-29T06:27:01.782Z,10.50
2022-12-29T06:29:29.065Z,10.30
2022-12-29T06:31:58.982Z,10.30
2022-12-29T06:34:26.437Z,10.20
2022-12-29T06:36:53.280Z,10.20
2022-12-29T06:39:20.029Z,10.10
2022-12-29T06:41:59.917Z,10.00
2022-12-29T06:44:51.944Z,10.00
2022-12-29T06:47:19.774Z,9.90
2022-12-29T06:49:47.553Z,9.90
2022-12-29T06:52:14.298Z,9.90
2022-12-29T06:54:41.140Z,9.90
2022-12-29T06:57:08.208Z,9.90
2022-12-29T06:59:38.027Z,9.90
2022-12-29T07:02:05.535Z,9.80
2022-12-29T07:04:32.602Z,9.80
2022-12-29T07:06:59.458Z,9.80
2022-12-29T07:09:26.300Z,9.80
2022-12-29T07:11:53.311Z,9.80
2022-12-29T07:14:20.140Z,10.00
2022-12-29T07:16:47.208Z,10.20
2022-12-29T07:19:14.134Z,10.20
2022-12-29T07:21:46.926Z,10.10
2022-12-29T07:24:13.991Z,10.10
2022-12-29T07:26:42.118Z,10.10
2022-12-29T07:29:08.877Z,10.00
2022-12-29T07:31:35.653Z,10.00
2022-12-29T07:34:02.477Z,9.90
2022-12-29T07:36:34.150Z,9.90
2022-12-29T07:39:01.854Z,9.90
2022-12-29T07:41:28.620Z,9.90
2022-12-29T07:43:55.420Z,9.90
2022-12-29T07:46:53.929Z,9.90
2022-12-29T07:49:18.888Z,9.90
2022-12-29T07:51:45.742Z,9.90
2022-12-29T07:54:13.581Z,9.90
2022-12-29T07:56:40.592Z,9.90
2022-12-29T07:59:07.506Z,9.90
2022-12-29T08:01:34.369Z,9.80
2022-12-29T08:04:01.417Z,9.90
2022-12-29T08:06:29.634Z,9.90
2022-12-29T08:08:57.189Z,9.90
2022-12-29T08:11:24.614Z,9.90
2022-12-29T08:13:51.449Z,9.90
2022-12-29T08:16:18.342Z,9.90
2022-12-29T08:18:45.407Z,9.90
2022-12-29T08:21:12.169Z,9.80
2022-12-29T08:23:39.347Z,9.80
2022-12-29T08:26:07.080Z,9.80
2022-12-29T08:28:34.317Z,9.80
2022-12-29T08:31:03.005Z,9.80
2022-12-29T08:33:30.849Z,9.80
2022-12-29T08:36:06.309Z,9.80
2022-12-29T08:38:33.214Z,9.80
2022-12-29T08:41:01.995Z,9.80
2022-12-29T08:43:29.567Z,9.90
2022-12-29T08:45:58.001Z,9.90
2022-12-29T08:48:25.214Z,9.90
2022-12-29T08:50:52.267Z,9.90
2022-12-29T08:53:19.498Z,9.90
2022-12-29T08:55:48.305Z,9.90
2022-12-29T08:58:17.415Z,9.90
2022-12-29T09:00:45.419Z,10.00
2022-12-29T09:03:12.793Z,10.00
2022-12-29T09:05:39.674Z,10.10
2022-12-29T09:08:09.478Z,10.10
2022-12-29T09:10:36.330Z,10.20
2022-12-29T09:13:03.119Z,10.20
2022-12-29T09:15:29.847Z,10.20
2022-12-29T09:17:56.756Z,10.20
2022-12-29T09:20:23.710Z,10.20
2022-12-29T09:22:50.686Z,10.20
2022-12-29T09:25:17.815Z,10.20
2022-12-29T09:27:44.744Z,10.20
2022-12-29T09:30:13.174Z,10.30
2022-12-29T09:32:44.757Z,10.30
2022-12-29T09:35:12.947Z,10.30
2022-12-29T09:37:39.676Z,10.30
2022-12-29T09:40:08.335Z,10.40
2022-12-29T09:42:46.296Z,10.40
2022-12-29T09:45:26.078Z,10.40
2022-12-29T09:47:53.338Z,10.40
2022-12-29T09:50:36.500Z,10.40
2022-12-29T09:53:22.234Z,10.40
2022-12-29T09:55:52.758Z,10.40
2022-12-29T09:58:45.300Z,10.40
2022-12-29T10:01:32.592Z,10.40
2022-12-29T10:04:04.419Z,10.40
2022-12-29T10:06:56.438Z,10.50
2022-12-29T10:09:57.988Z,10.50
2022-12-29T10:12:33.544Z,10.50
2022-12-29T10:15:12.839Z,10.40
2022-12-29T10:18:01.402Z,10.50
2022-12-29T10:20:53.611Z,10.50
2022-12-29T10:23:29.862Z,10.50
2022-12-29T10:25:59.058Z,10.50
2022-12-29T10:28:36.898Z,10.50
2022-12-29T10:31:10.274Z,10.50
2022-12-29T10:33:41.691Z,10.50
2022-12-29T10:36:33.087Z,10.50
2022-12-29T10:39:15.408Z,10.60
2022-12-29T10:41:49.369Z,10.70
2022-12-29T10:44:18.838Z,10.80
2022-12-29T10:46:53.064Z,10.80
2022-12-29T10:49:22.341Z,10.90
2022-12-29T10:51:53.424Z,10.80
2022-12-29T10:54:28.981Z,10.90
2022-12-29T10:56:59.132Z,10.90
2022-12-29T10:59:31.156Z,10.90
2022-12-29T11:02:10.320Z,10.90
2022-12-29T11:05:01.179Z,10.90
2022-12-29T11:07:32.046Z,10.90
2022-12-29T11:10:37.131Z,10.90
2022-12-29T11:13:19.722Z,10.90
2022-12-29T11:15:49.862Z,10.90
2022-12-29T11:18:38.356Z,11.00
2022-12-29T11:21:31.612Z,11.40
2022-12-29T11:24:05.921Z,11.50
2022-12-29T11:26:35.247Z,11.60
2022-12-29T11:29:17.209Z,11.50
2022-12-29T11:31:46.668Z,11.50
2022-12-29T11:34:36.627Z,11.50
2022-12-29T11:37:10.128Z,11.50
2022-12-29T11:39:54.988Z,11.50
2022-12-29T11:42:39.171Z,11.60
2022-12-29T11:45:26.534Z,11.80
2022-12-29T11:48:06.889Z,11.90
2022-12-29T11:50:38.611Z,11.90
2022-12-29T11:53:19.510Z,12.00
2022-12-29T11:55:59.527Z,12.00
2022-12-29T11:58:34.723Z,11.90
2022-12-29T12:01:16.637Z,11.90
2022-12-29T12:04:15.166Z,11.90
2022-12-29T12:07:08.028Z,11.90
2022-12-29T12:09:59.043Z,11.90
2022-12-29T12:12:45.534Z,11.80
2022-12-29T12:15:43.414Z,11.80
2022-12-29T12:18:15.651Z,11.70
2022-12-29T12:20:45.280Z,11.70
2022-12-29T12:23:45.364Z,11.70
2022-12-29T12:26:28.866Z,11.70
2022-12-29T12:29:18.556Z,11.60
2022-12-29T12:31:55.121Z,11.60
2022-12-29T12:34:33.831Z,11.70
2022-12-29T12:37:07.879Z,11.60
2022-12-29T12:39:40.510Z,11.60
2022-12-29T12:42:20.800Z,11.60
2022-12-29T12:45:12.047Z,11.50
2022-12-29T12:47:55.398Z,11.50
2022-12-29T12:50:25.474Z,11.50
2022-12-29T12:53:04.593Z,11.50
2022-12-29T12:55:44.131Z,11.50
2022-12-29T12:58:13.772Z,11.50
2022-12-29T13:01:19.396Z,11.40
2022-12-29T13:04:01.174Z,11.40
2022-12-29T13:06:33.662Z,11.20
2022-12-29T13:09:09.961Z,11.00
2022-12-29T13:11:52.449Z,10.90
2022-12-29T13:14:41.067Z,10.90
2022-12-29T13:17:33.961Z,10.80
2022-12-29T13:20:11.731Z,10.80
2022-12-29T13:22:49.599Z,10.70
2022-12-29T13:25:24.815Z,10.60
2022-12-29T13:28:26.647Z,10.60
2022-12-29T13:31:10.958Z,10.60
2022-12-29T13:33:54.068Z,10.60
2022-12-29T13:36:52.549Z,10.70
2022-12-29T13:39:22.566Z,10.70
2022-12-29T13:41:54.503Z,10.70
2022-12-29T13:44:56.394Z,10.70
2022-12-29T13:47:35.509Z,10.70
2022-12-29T13:50:05.778Z,10.60
2022-12-29T13:52:39.317Z,10.50
2022-12-29T13:55:31.121Z,10.50
2022-12-29T13:58:24.171Z,10.50
2022-12-29T14:00:59.290Z,10.60
2022-12-29T14:03:51.282Z,10.60
2022-12-29T14:06:34.679Z,10.60
2022-12-29T14:09:04.716Z,10.60
2022-12-29T14:11:35.439Z,10.60
2022-12-29T14:14:26.271Z,10.60
2022-12-29T14:16:53.812Z,10.50
2022-12-29T14:19:42.940Z,10.50
2022-12-29T14:22:11.039Z,10.50
2022-12-29T14:24:44.635Z,10.40
2022-12-29T14:27:11.413Z,10.40
2022-12-29T14:29:41.957Z,10.40
2022-12-29T14:32:26.968Z,10.40
2022-12-29T14:34:59.028Z,10.40
2022-12-29T14:37:37.218Z,10.40
2022-12-29T14:40:27.301Z,10.40
2022-12-29T14:42:56.890Z,10.40
2022-12-29T14:45:30.363Z,10.40
2022-12-29T14:47:58.358Z,10.30
2022-12-29T14:50:43.320Z,10.30
2022-12-29T14:53:49.709Z,10.30
2022-12-29T14:56:25.002Z,10.30
2022-12-29T14:59:03.435Z,10.20
2022-12-29T15:01:40.468Z,10.10
2022-12-29T15:04:21.719Z,10.00
2022-12-29T15:06:50.720Z,9.90
2022-12-29T15:09:43.809Z,9.90
2022-12-29T15:12:36.665Z,9.80
2022-12-29T15:15:17.809Z,9.60
2022-12-29T15:17:44.583Z,9.60
2022-12-29T15:20:29.856Z,9.50
2022-12-29T15:23:04.865Z,9.40
2022-12-29T15:25:32.528Z,9.30
2022-12-29T15:28:03.652Z,9.30
2022-12-29T15:30:30.579Z,9.30
2022-12-29T15:32:57.697Z,9.20
2022-12-29T15:35:35.577Z,9.20
2022-12-29T15:38:16.743Z,9.10
2022-12-29T15:40:46.058Z,9.10
2022-12-29T15:43:47.502Z,9.10
2022-12-29T15:46:15.178Z,9.10
2022-12-29T15:48:42.269Z,9.00
2022-12-29T15:51:31.759Z,9.00
2022-12-29T15:53:58.874Z,9.00
2022-12-29T15:56:28.960Z,9.00
2022-12-29T15:59:00.256Z,9.00
2022-12-29T16:01:34.626Z,9.00
2022-12-29T16:04:06.058Z,9.10
2022-12-29T16:06:44.938Z,9.20
2022-12-29T16:09:21.281Z,9.30
2022-12-29T16:11:54.271Z,9.30
2022-12-29T16:14:28.329Z,9.30
2022-12-29T16:17:00.309Z,9.40
2022-12-29T16:19:30.511Z,9.40
2022-12-29T16:21:59.360Z,9.40
2022-12-29T16:24:30.608Z,9.50
2022-12-29T16:27:00.812Z,9.50
2022-12-29T16:29:30.647Z,9.40
2022-12-29T16:32:04.033Z,9.40
2022-12-29T16:34:32.778Z,9.30
2022-12-29T16:37:29.905Z,9.30
2022-12-29T16:39:56.873Z,9.30
2022-12-29T16:42:50.814Z,9.40
2022-12-29T16:45:21.778Z,9.40
2022-12-29T16:48:09.708Z,9.50
2022-12-29T16:50:39.376Z,9.60
2022-12-29T16:53:17.418Z,9.70
2022-12-29T16:55:52.593Z,9.70
2022-12-29T16:58:26.775Z,9.70
2022-12-29T17:01:01.726Z,9.70
2022-12-29T17:03:50.993Z,9.70
2022-12-29T17:06:19.648Z,9.80
2022-12-29T17:08:47.105Z,9.80
2022-12-29T17:11:43.739Z,9.70
2022-12-29T17:14:18.421Z,9.70
2022-12-29T17:16:45.218Z,9.60
2022-12-29T17:19:30.287Z,9.60
2022-12-29T17:21:57.166Z,9.60
2022-12-29T17:24:23.952Z,9.60
2022-12-29T17:26:54.668Z,9.60
2022-12-29T17:29:27.199Z,9.60
2022-12-29T17:31:54.444Z,9.50
2022-12-29T17:34:21.365Z,9.50
2022-12-29T17:36:48.313Z,9.40
2022-12-29T17:39:15.072Z,9.40
2022-12-29T17:41:41.842Z,9.40
2022-12-29T17:44:16.702Z,9.40
2022-12-29T17:46:43.783Z,9.30
2022-12-29T17:49:16.125Z,9.20
2022-12-29T17:51:44.771Z,9.20
2022-12-29T17:54:23.766Z,9.10
2022-12-29T17:56:51.134Z,9.00
2022-12-29T17:59:18.749Z,8.90
2022-12-29T18:01:47.255Z,8.80
2022-12-29T18:04:18.132Z,8.80
2022-12-29T18:06:46.179Z,8.80
2022-12-29T18:09:15.080Z,8.80
2022-12-29T18:11:43.829Z,8.80
2022-12-29T18:14:17.887Z,8.70
2022-12-29T18:16:44.713Z,8.80
2022-12-29T18:19:11.496Z,8.80
2022-12-29T18:21:39.617Z,8.80
2022-12-29T18:24:06.808Z,8.90
2022-12-29T18:26:35.597Z,8.90
2022-12-29T18:29:02.671Z,8.90
2022-12-29T18:31:31.738Z,8.90
2022-12-29T18:34:03.026Z,8.90
2022-12-29T18:36:30.416Z,8.90
2022-12-29T18:38:57.181Z,8.90
2022-12-29T18:41:29.457Z,8.90
2022-12-29T18:43:57.192Z,8.80
2022-12-29T18:46:24.597Z,8.80
2022-12-29T18:48:52.331Z,8.70
2022-12-29T18:51:24.616Z,8.60
2022-12-29T18:53:54.097Z,8.50
2022-12-29T18:56:22.496Z,8.40
2022-12-29T18:58:53.526Z,8.40
2022-12-29T19:01:25.500Z,8.30
2022-12-29T19:03:53.076Z,8.30
2022-12-29T19:06:21.189Z,8.30
2022-12-29T19:08:48.011Z,8.30
2022-12-29T19:11:15.249Z,8.20
2022-12-29T19:13:42.260Z,8.20
2022-12-29T19:16:18.628Z,8.30
2022-12-29T19:18:50.834Z,8.30
2022-12-29T19:21:25.344Z,8.20
2022-12-29T19:23:53.064Z,8.20
2022-12-29T19:26:34.596Z,8.30
2022-12-29T19:29:01.989Z,8.30
2022-12-29T19:31:28.936Z,8.40
2022-12-29T19:33:55.853Z,8.30
2022-12-29T19:36:23.099Z,8.30
2022-12-29T19:38:50.076Z,8.30
2022-12-29T19:41:16.927Z,8.30
2022-12-29T19:43:43.946Z,8.20
2022-12-29T19:46:15.092Z,8.30
2022-12-29T19:48:41.927Z,8.40
2022-12-29T19:51:13.268Z,8.40
2022-12-29T19:53:40.028Z,8.30
2022-12-29T19:56:08.339Z,8.30
2022-12-29T19:58:40.456Z,8.30
2022-12-29T20:01:13.607Z,8.30
2022-12-29T20:03:41.337Z,8.30
2022-12-29T20:06:09.819Z,8.20
2022-12-29T20:08:38.086Z,8.20
2022-12-29T20:11:07.782Z,8.10
2022-12-29T20:13:35.736Z,8.10
2022-12-29T20:16:05.112Z,8.10
2022-12-29T20:18:32.251Z,8.10
2022-12-29T20:21:12.867Z,8.00
2022-12-29T20:23:40.664Z,8.00
2022-12-29T20:26:09.187Z,8.00
2022-12-29T20:28:35.932Z,8.00
2022-12-29T20:31:08.811Z,8.00
2022-12-29T20:33:36.150Z,8.00
2022-12-29T20:36:19.057Z,8.00
2022-12-29T20:38:46.807Z,8.10
2022-12-29T20:41:14.587Z,8.10
2022-12-29T20:43:41.964Z,8.00
2022-12-29T20:46:09.610Z,8.00
2022-12-29T20:48:36.886Z,8.00
2022-12-29T20:51:03.825Z,8.00
2022-12-29T20:53:33.370Z,8.00
2022-12-29T20:56:03.645Z,8.00
2022-12-29T20:58:30.745Z,8.00
2022-12-29T21:01:02.955Z,8.00
2022-12-29T21:03:30.174Z,8.00
2022-12-29T21:05:57.430Z,8.00
2022-12-29T21:08:31.065Z,8.00
2022-12-29T21:10:58.767Z,8.00
2022-12-29T21:13:26.414Z,8.00
2022-12-29T21:16:01.353Z,8.00
2022-12-29T21:18:31.391Z,8.00
2022-12-29T21:21:00.529Z,8.00
2022-12-29T21:23:27.877Z,8.00
2022-12-29T21:25:55.046Z,8.00
2022-12-29T21:28:24.163Z,8.00
2022-12-29T21:30:51.704Z,8.00
2022-12-29T21:33:19.981Z,8.10
2022-12-29T21:35:48.381Z,8.00
2022-12-29T21:38:15.495Z,8.00
2022-12-29T21:40:42.398Z,8.00
2022-12-29T21:43:11.326Z,8.00
2022-12-29T21:45:38.128Z,8.10
2022-12-29T21:48:23.472Z,8.10
2022-12-29T21:51:15.060Z,8.10
2022-12-29T21:53:44.616Z,8.10
2022-12-29T21:56:19.416Z,8.10
2022-12-29T21:59:06.053Z,8.10
2022-12-29T22:01:57.257Z,8.10
2022-12-29T22:04:51.306Z,8.10
2022-12-29T22:07:41.799Z,8.10
2022-12-29T22:10:33.424Z,8.10
2022-12-29T22:13:02.904Z,8.10
2022-12-29T22:15:49.764Z,8.10
2022-12-29T22:18:29.311Z,8.10
2022-12-29T22:21:21.322Z,8.10
2022-12-29T22:24:02.505Z,8.10
2022-12-29T22:26:37.848Z,8.20
2022-12-29T22:29:04.652Z,8.20
2022-12-29T22:31:36.413Z,8.20
2022-12-29T22:34:05.554Z,8.20
2022-12-29T22:36:33.278Z,8.30
2022-12-29T22:39:00.141Z,8.30
2022-12-29T22:41:26.897Z,8.40
2022-12-29T22:43:54.618Z,8.40
2022-12-29T22:46:21.575Z,8.40
2022-12-29T22:48:48.427Z,8.40
2022-12-29T22:51:15.268Z,8.40
2022-12-29T22:53:42.132Z,8.50
2022-12-29T22:56:11.523Z,8.50
2022-12-29T22:58:46.106Z,8.40
2022-12-29T23:01:16.100Z,8.40
2022-12-29T23:03:43.494Z,8.40
2022-12-29T23:06:12.885Z,8.40
2022-12-29T23:08:41.112Z,8.50
2022-12-29T23:11:10.190Z,8.50
2022-12-29T23:13:37.502Z,8.50
2022-12-29T23:16:04.734Z,8.50
2022-12-29T23:18:31.527Z,8.50
2022-12-29T23:20:58.482Z,8.50
2022-12-29T23:23:48.798Z,8.40
2022-12-29T23:26:18.097Z,8.40
2022-12-29T23:28:45.430Z,8.40
2022-12-29T23:31:13.168Z,8.40
2022-12-29T23:33:40.751Z,8.30
2022-12-29T23:36:08.532Z,8.30
2022-12-29T23:38:35.517Z,8.30
2022-12-29T23:41:04.611Z,8.30
2022-12-29T23:43:31.853Z,8.30
2022-12-29T23:45:58.748Z,8.30
2022-12-29T23:48:25.588Z,8.30
2022-12-29T23:50:52.363Z,8.30
2022-12-29T23:53:19.107Z,8.30
2022-12-29T23:55:53.347Z,8.40
2022-12-29T23:58:20.181Z,8.40
